Time;durP1;ratioP1;P1;durP2;ratioP2;P2;SDS_P1;SDS_P2;PMS_P1;PMS_P2;Temp;Humidity;BMP_temperature;BMP_pressure;BME280_temperature;BME280_humidity;BME280_pressure;Samples;Min_cycle;Max_cycle;Signal;HPM_P1;HPM_P2
2023/07/01 00:00:55;;;;;;;4.05;3.50;;;20.60;71.60;;;;;;5051629;28;20455;-56
2023/07/01 00:03:20;;;;;;;4.30;3.90;;;20.60;71.70;;;;;;5051371;28;20063;-56
2023/07/01 00:05:46;;;;;;;3.72;3.42;;;20.60;71.90;;;;;;5051163;28;20052;-56
2023/07/01 00:08:11;;;;;;;4.30;3.90;;;20.60;72.00;;;;;;5051570;28;20021;-56
2023/07/01 00:10:37;;;;;;;4.90;4.22;;;20.50;72.00;;;;;;5051210;28;20032;-56
2023/07/01 00:13:03;;;;;;;3.78;3.47;;;20.50;72.00;;;;;;5051496;28;20031;-56
2023/07/01 00:15:28;;;;;;;4.40;3.92;;;20.50;72.10;;;;;;5051238;28;20150;-56
2023/07/01 00:17:54;;;;;;;4.20;3.80;;;20.50;72.30;;;;;;5051199;28;20075;-57
2023/07/01 00:20:26;;;;;;;3.78;3.42;;;20.50;72.30;;;;;;5051281;28;20064;-56
2023/07/01 00:22:52;;;;;;;4.65;3.70;;;20.40;72.30;;;;;;5051492;28;20036;-57
2023/07/01 00:25:18;;;;;;;4.57;4.00;;;20.40;72.50;;;;;;5051235;28;20022;-56
2023/07/01 00:27:44;;;;;;;4.72;3.63;;;20.40;72.80;;;;;;5051225;28;20028;-56
2023/07/01 00:30:10;;;;;;;4.75;4.05;;;20.40;72.90;;;;;;5051073;28;20025;-56
2023/07/01 00:32:36;;;;;;;4.03;3.63;;;20.30;72.90;;;;;;5051414;28;20056;-52
2023/07/01 00:35:01;;;;;;;4.10;3.70;;;20.30;73.20;;;;;;5051328;28;20067;-56
2023/07/01 00:37:28;;;;;;;4.15;3.70;;;20.30;73.20;;;;;;5050921;28;20430;-56
2023/07/01 00:39:53;;;;;;;4.43;3.92;;;20.30;73.40;;;;;;5051336;28;20017;-57
2023/07/01 00:42:19;;;;;;;4.53;3.67;;;20.30;73.60;;;;;;5050789;28;20033;-55
2023/07/01 00:44:44;;;;;;;4.80;4.10;;;20.20;73.70;;;;;;5051001;28;20025;-57
2023/07/01 00:47:10;;;;;;;4.45;4.05;;;20.20;73.50;;;;;;5050896;28;20021;-56
2023/07/01 00:49:38;;;;;;;4.22;3.83;;;20.20;73.80;;;;;;5051148;28;20033;-56
2023/07/01 00:52:05;;;;;;;4.05;3.65;;;20.10;73.90;;;;;;5051884;28;20400;-55
2023/07/01 00:54:31;;;;;;;4.35;3.95;;;20.10;74.10;;;;;;5055073;28;20389;-56
2023/07/01 00:56:57;;;;;;;4.55;4.15;;;20.10;74.20;;;;;;5054868;28;20037;-55
2023/07/01 00:59:22;;;;;;;5.05;4.55;;;20.10;74.30;;;;;;5054788;28;20025;-56
2023/07/01 01:01:53;;;;;;;4.85;4.20;;;20.10;74.40;;;;;;5055032;28;20103;-56
2023/07/01 01:05:02;;;;;;;4.47;3.92;;;20.00;74.50;;;;;;5054490;28;20390;-53
2023/07/01 01:07:47;;;;;;;4.25;3.85;;;20.00;74.40;;;;;;5052066;28;20093;-56
2023/07/01 01:10:21;;;;;;;4.20;3.80;;;20.00;74.60;;;;;;5054663;28;20029;-56
2023/07/01 01:12:48;;;;;;;4.53;4.13;;;20.00;74.80;;;;;;5054578;28;20388;-56
2023/07/01 01:15:14;;;;;;;4.32;3.90;;;20.00;74.80;;;;;;5054465;28;20024;-56
2023/07/01 01:17:43;;;;;;;4.50;4.07;;;19.90;75.00;;;;;;5054294;28;20040;-56
2023/07/01 01:20:16;;;;;;;4.53;4.13;;;19.90;75.10;;;;;;5054304;28;20032;-56
2023/07/01 01:23:10;;;;;;;4.80;4.30;;;19.90;75.10;;;;;;5054534;28;20033;-56
2023/07/01 01:25:42;;;;;;;4.45;4.05;;;19.90;75.20;;;;;;5054450;28;20025;-56
2023/07/01 01:28:09;;;;;;;5.18;4.35;;;19.90;75.30;;;;;;5054294;28;20034;-53
2023/07/01 01:30:35;;;;;;;4.60;4.18;;;19.90;75.30;;;;;;5054176;28;20021;-56
2023/07/01 01:33:02;;;;;;;4.35;3.92;;;19.90;75.40;;;;;;5054104;28;20086;-54
2023/07/01 01:35:28;;;;;;;4.80;4.30;;;19.90;75.50;;;;;;5054390;28;20029;-56
2023/07/01 01:38:20;;;;;;;4.78;4.28;;;20.00;75.60;;;;;;5054028;28;20021;-57
2023/07/01 01:41:10;;;;;;;4.38;3.97;;;20.00;75.50;;;;;;5054175;28;20033;-56
2023/07/01 01:43:51;;;;;;;5.32;4.38;;;20.00;75.40;;;;;;5054596;28;20039;-56
2023/07/01 01:46:18;;;;;;;6.00;4.70;;;19.90;75.40;;;;;;5053841;28;20028;-56
2023/07/01 01:48:44;;;;;;;4.70;4.22;;;19.90;75.70;;;;;;5053681;28;20029;-55
2023/07/01 01:51:10;;;;;;;4.95;4.40;;;19.90;75.80;;;;;;5053839;28;20025;-56
2023/07/01 01:53:41;;;;;;;6.25;4.60;;;19.90;75.80;;;;;;5053830;28;20025;-56
2023/07/01 01:56:07;;;;;;;5.85;4.50;;;19.90;75.90;;;;;;5054029;28;20017;-56
2023/07/01 01:58:33;;;;;;;4.85;4.35;;;19.90;76.00;;;;;;5053598;28;20032;-56
2023/07/01 02:00:59;;;;;;;4.68;4.18;;;19.90;75.80;;;;;;5053654;28;20426;-56
2023/07/01 02:03:24;;;;;;;4.57;4.18;;;19.90;76.10;;;;;;5052229;28;20043;-56
2023/07/01 02:05:50;;;;;;;4.55;4.15;;;19.90;76.00;;;;;;5053351;28;20049;-56
2023/07/01 02:08:16;;;;;;;5.70;4.45;;;20.00;76.10;;;;;;5053414;28;20029;-56
2023/07/01 02:10:41;;;;;;;4.53;4.10;;;20.00;76.10;;;;;;5053404;28;20033;-56
2023/07/01 02:13:07;;;;;;;5.03;4.50;;;20.00;76.10;;;;;;5053316;28;20033;-56
2023/07/01 02:15:33;;;;;;;4.80;4.38;;;20.00;76.10;;;;;;5053346;28;20504;-56
2023/07/01 02:17:58;;;;;;;4.78;4.32;;;20.00;76.30;;;;;;5053289;28;20033;-56
2023/07/01 02:20:24;;;;;;;5.55;4.50;;;20.00;76.10;;;;;;5053160;28;20064;-55
2023/07/01 02:22:50;;;;;;;5.25;4.25;;;20.10;76.10;;;;;;5053151;28;20096;-56
2023/07/01 02:25:15;;;;;;;5.72;4.63;;;20.10;76.20;;;;;;5053320;28;20047;-55
2023/07/01 02:27:41;;;;;;;6.53;4.82;;;20.10;76.20;;;;;;5053190;28;20029;-54
2023/07/01 02:30:07;;;;;;;5.25;4.75;;;20.10;76.30;;;;;;5053072;28;20431;-56
2023/07/01 02:32:33;;;;;;;6.00;4.43;;;20.10;76.30;;;;;;5053388;28;20021;-56
2023/07/01 02:34:59;;;;;;;4.95;4.50;;;20.10;76.40;;;;;;5052971;28;20094;-56
2023/07/01 02:37:24;;;;;;;5.72;4.63;;;20.10;76.20;;;;;;5052931;28;20025;-56
2023/07/01 02:39:50;;;;;;;5.15;4.65;;;20.10;76.20;;;;;;5053238;28;20036;-56
2023/07/01 02:42:19;;;;;;;4.47;4.07;;;20.20;76.20;;;;;;5052783;28;20071;-53
2023/07/01 02:44:46;;;;;;;4.40;4.00;;;20.20;76.10;;;;;;5053160;28;20028;-56
2023/07/01 02:47:12;;;;;;;4.70;4.30;;;20.30;76.30;;;;;;5053008;28;20056;-54
2023/07/01 02:49:40;;;;;;;5.60;4.82;;;20.30;76.20;;;;;;5052788;28;20079;-52
2023/07/01 02:52:07;;;;;;;4.97;4.47;;;20.40;76.00;;;;;;5052934;28;20025;-55
2023/07/01 02:54:33;;;;;;;4.95;4.13;;;20.40;76.00;;;;;;5052555;28;20024;-56
2023/07/01 02:56:58;;;;;;;5.18;4.68;;;20.50;75.90;;;;;;5052494;28;20033;-55
2023/07/01 02:59:24;;;;;;;4.95;4.45;;;20.60;75.70;;;;;;5052561;28;20051;-56
2023/07/01 03:01:50;;;;;;;6.75;4.68;;;20.60;75.60;;;;;;5052714;28;20035;-56
2023/07/01 03:04:15;;;;;;;5.43;4.88;;;20.70;75.60;;;;;;5052590;28;20025;-56
2023/07/01 03:06:41;;;;;;;4.97;4.47;;;20.70;75.50;;;;;;5052336;28;20083;-56
2023/07/01 03:09:07;;;;;;;5.07;4.57;;;20.70;75.50;;;;;;5052295;28;20025;-56
2023/07/01 03:11:36;;;;;;;4.90;4.40;;;20.80;75.20;;;;;;5052691;28;20078;-55
2023/07/01 03:14:02;;;;;;;5.18;4.68;;;20.80;75.10;;;;;;5052355;28;20075;-56
2023/07/01 03:16:30;;;;;;;5.07;4.57;;;20.90;75.10;;;;;;5052213;28;20477;-56
2023/07/01 03:18:59;;;;;;;4.85;4.40;;;20.90;74.80;;;;;;5052177;28;20072;-56
2023/07/01 03:21:26;;;;;;;5.03;4.50;;;21.00;74.70;;;;;;5052541;28;20060;-56
2023/07/01 03:23:52;;;;;;;5.20;4.70;;;21.00;74.80;;;;;;5052250;28;20057;-56
2023/07/01 03:26:18;;;;;;;5.38;4.88;;;21.00;74.60;;;;;;5052201;28;20112;-56
2023/07/01 03:28:44;;;;;;;6.20;4.63;;;21.10;74.80;;;;;;5051899;28;20113;-54
2023/07/01 03:31:10;;;;;;;5.65;5.05;;;21.20;74.90;;;;;;5052218;28;20033;-56
2023/07/01 03:33:36;;;;;;;4.88;4.47;;;21.20;74.70;;;;;;5052161;28;20086;-56
2023/07/01 03:36:02;;;;;;;5.88;4.45;;;21.40;75.00;;;;;;5051884;28;20075;-55
2023/07/01 03:38:28;;;;;;;5.55;4.95;;;21.60;75.80;;;;;;5051768;28;20377;-57
2023/07/01 03:40:53;;;;;;;4.90;4.40;;;21.90;76.30;;;;;;5051656;28;20024;-56
2023/07/01 03:43:19;;;;;;;5.28;4.78;;;22.40;76.20;;;;;;5051573;28;20032;-57
2023/07/01 03:45:44;;;;;;;5.00;4.50;;;22.90;75.50;;;;;;5051581;28;20411;-57
2023/07/01 03:48:10;;;;;;;5.20;4.70;;;23.50;74.50;;;;;;5051644;28;20079;-56
2023/07/01 03:50:36;;;;;;;5.00;4.50;;;24.30;73.30;;;;;;5051488;28;20052;-57
2023/07/01 03:53:01;;;;;;;4.00;3.60;;;25.10;71.70;;;;;;5051601;28;20100;-55
2023/07/01 03:55:27;;;;;;;4.72;4.25;;;26.00;70.20;;;;;;5051389;28;20029;-57
2023/07/01 03:57:52;;;;;;;4.20;3.80;;;26.90;68.40;;;;;;5051448;28;20029;-58
2023/07/01 04:00:18;;;;;;;4.47;3.97;;;27.80;66.70;;;;;;5051300;28;20036;-58
2023/07/01 04:02:48;;;;;;;4.20;3.80;;;28.50;65.10;;;;;;5051272;28;20040;-56
2023/07/01 04:05:15;;;;;;;4.22;3.83;;;29.40;63.60;;;;;;5051320;28;20412;-56
2023/07/01 04:07:42;;;;;;;4.10;3.70;;;30.00;62.10;;;;;;5051507;28;20017;-58
2023/07/01 04:10:09;;;;;;;4.60;4.10;;;30.70;60.60;;;;;;5051054;28;20025;-58
2023/07/01 04:12:36;;;;;;;3.95;3.63;;;31.20;59.40;;;;;;5051354;28;20535;-57
2023/07/01 04:15:03;;;;;;;4.40;3.65;;;31.80;58.40;;;;;;5051334;28;20021;-58
2023/07/01 04:17:29;;;;;;;3.63;3.33;;;32.20;57.50;;;;;;5051075;28;20091;-58
2023/07/01 04:19:55;;;;;;;3.78;3.47;;;32.70;56.80;;;;;;5051163;28;20021;-58
2023/07/01 04:22:22;;;;;;;4.30;3.90;;;33.10;56.10;;;;;;5051193;28;20388;-58
2023/07/01 04:24:48;;;;;;;3.63;3.20;;;33.60;55.50;;;;;;5051275;28;20086;-58
2023/07/01 04:27:14;;;;;;;3.80;3.40;;;34.10;54.90;;;;;;5050630;28;20025;-56
2023/07/01 04:29:39;;;;;;;3.70;3.40;;;34.60;54.20;;;;;;5051054;28;20078;-58
2023/07/01 04:32:05;;;;;;;4.00;3.70;;;35.00;53.50;;;;;;5050998;28;20032;-55
2023/07/01 04:34:31;;;;;;;3.50;3.20;;;35.50;52.60;;;;;;5050983;28;20086;-55
2023/07/01 04:36:56;;;;;;;3.47;3.17;;;35.70;51.90;;;;;;5051145;28;20480;-58
2023/07/01 04:39:23;;;;;;;3.53;3.22;;;35.90;51.40;;;;;;5050981;28;20025;-58
2023/07/01 04:41:49;;;;;;;4.10;3.17;;;36.10;51.00;;;;;;5050932;28;20029;-58
2023/07/01 04:44:15;;;;;;;3.83;3.53;;;36.30;50.70;;;;;;5050899;28;20384;-58
2023/07/01 04:46:40;;;;;;;4.05;3.55;;;36.60;50.60;;;;;;5050864;28;20049;-58
2023/07/01 04:49:08;;;;;;;3.72;3.22;;;36.70;50.00;;;;;;5050836;28;20063;-57
2023/07/01 04:51:36;;;;;;;3.67;3.38;;;36.90;49.50;;;;;;5050898;28;20477;-58
2023/07/01 04:54:04;;;;;;;3.92;3.30;;;37.10;49.20;;;;;;5050864;28;20029;-58
2023/07/01 04:56:30;;;;;;;4.07;3.67;;;37.20;48.90;;;;;;5050996;28;20052;-58
2023/07/01 04:58:56;;;;;;;3.60;3.30;;;37.40;48.60;;;;;;5050768;28;20111;-56
2023/07/01 05:01:21;;;;;;;4.05;3.65;;;37.50;48.30;;;;;;5050643;28;20108;-56
2023/07/01 05:03:47;;;;;;;4.05;3.25;;;37.70;48.30;;;;;;5050742;28;20041;-58
2023/07/01 05:06:12;;;;;;;3.40;3.10;;;37.80;48.00;;;;;;5050540;28;20045;-56
2023/07/01 05:08:38;;;;;;;4.05;3.65;;;38.00;47.80;;;;;;5050707;28;20090;-57
2023/07/01 05:11:04;;;;;;;3.58;3.28;;;38.20;47.60;;;;;;5050635;28;20104;-58
2023/07/01 05:13:29;;;;;;;3.30;3.00;;;38.30;47.40;;;;;;5050554;28;20037;-57
2023/07/01 05:15:55;;;;;;;3.40;3.10;;;38.40;47.30;;;;;;5050688;28;20108;-58
2023/07/01 05:18:21;;;;;;;3.47;3.17;;;38.50;47.00;;;;;;5051114;28;20074;-58
2023/07/01 05:20:46;;;;;;;3.67;3.38;;;38.60;46.50;;;;;;5050475;28;20446;-58
2023/07/01 05:23:12;;;;;;;3.45;3.15;;;38.60;46.00;;;;;;5050481;28;20416;-56
2023/07/01 05:25:38;;;;;;;3.60;3.30;;;38.50;45.60;;;;;;5050761;28;20126;-55
2023/07/01 05:28:04;;;;;;;3.78;3.38;;;38.20;45.20;;;;;;5050507;28;20043;-56
2023/07/01 05:30:29;;;;;;;3.90;3.55;;;37.60;45.30;;;;;;5050390;28;20028;-55
2023/07/01 05:32:55;;;;;;;4.90;3.75;;;36.80;45.70;;;;;;5050392;28;20035;-55
2023/07/01 05:35:21;;;;;;;4.00;3.60;;;36.00;46.40;;;;;;5050675;28;20028;-55
2023/07/01 05:37:46;;;;;;;3.90;3.55;;;35.20;47.00;;;;;;5050838;28;20041;-55
2023/07/01 05:40:12;;;;;;;4.15;3.75;;;34.40;47.70;;;;;;5053993;28;20017;-56
2023/07/01 05:42:39;;;;;;;4.07;3.67;;;33.60;48.40;;;;;;5053766;28;20028;-55
2023/07/01 05:45:05;;;;;;;4.55;4.15;;;32.80;49.00;;;;;;5054152;28;20472;-56
2023/07/01 05:47:31;;;;;;;4.35;3.95;;;32.20;49.60;;;;;;5053957;28;20045;-55
2023/07/01 05:49:57;;;;;;;4.30;3.90;;;31.60;50.30;;;;;;5054093;28;20114;-55
2023/07/01 05:52:23;;;;;;;4.03;3.63;;;31.10;51.00;;;;;;5053880;28;20021;-55
2023/07/01 05:54:49;;;;;;;4.30;3.90;;;30.70;51.60;;;;;;5053613;28;20021;-55
2023/07/01 05:57:14;;;;;;;5.10;4.50;;;30.30;52.20;;;;;;5053799;28;20025;-56
2023/07/01 05:59:40;;;;;;;4.60;4.07;;;30.00;52.70;;;;;;5053550;28;20127;-56
2023/07/01 06:02:07;;;;;;;5.00;4.50;;;29.70;53.20;;;;;;5053498;28;20041;-56
2023/07/01 06:04:33;;;;;;;4.68;4.28;;;29.50;53.60;;;;;;5053653;28;20051;-56
2023/07/01 06:06:59;;;;;;;4.70;4.20;;;29.20;53.90;;;;;;5053591;28;20100;-56
2023/07/01 06:09:24;;;;;;;4.32;3.92;;;29.10;54.40;;;;;;5053495;28;20136;-55
2023/07/01 06:11:50;;;;;;;7.22;4.55;;;28.80;54.70;;;;;;5052938;28;20064;-55
2023/07/01 06:14:16;;;;;;;4.47;4.07;;;28.70;55.20;;;;;;5051612;28;20128;-56
2023/07/01 06:16:41;;;;;;;5.57;4.53;;;28.60;55.50;;;;;;5051515;28;20021;-56
2023/07/01 06:19:07;;;;;;;4.88;4.43;;;28.40;55.70;;;;;;5051486;28;20040;-56
2023/07/01 06:21:33;;;;;;;5.47;4.57;;;28.30;56.00;;;;;;5052575;28;20033;-55
2023/07/01 06:23:59;;;;;;;4.78;4.30;;;28.20;56.40;;;;;;5052471;28;20411;-55
2023/07/01 06:26:24;;;;;;;5.03;4.53;;;28.10;56.60;;;;;;5051426;28;20020;-55
2023/07/01 06:28:50;;;;;;;4.85;4.22;;;27.90;57.00;;;;;;5051864;28;20032;-55
2023/07/01 06:31:16;;;;;;;5.20;4.50;;;27.90;57.30;;;;;;5050965;28;20083;-56
2023/07/01 06:33:41;;;;;;;4.50;4.10;;;27.80;57.40;;;;;;5051127;28;20025;-55
2023/07/01 06:36:07;;;;;;;4.80;4.40;;;27.70;57.60;;;;;;5051017;28;20032;-53
2023/07/01 06:38:33;;;;;;;5.03;4.47;;;27.70;57.90;;;;;;5051778;28;20028;-55
2023/07/01 06:40:59;;;;;;;5.18;4.63;;;27.60;58.10;;;;;;5051963;28;20021;-55
2023/07/01 06:43:24;;;;;;;4.22;3.83;;;27.60;58.30;;;;;;5051927;28;20037;-52
2023/07/01 06:45:50;;;;;;;5.55;4.20;;;27.50;58.70;;;;;;5052991;28;20079;-56
2023/07/01 06:48:16;;;;;;;5.10;4.60;;;27.50;58.80;;;;;;5052654;28;20025;-55
2023/07/01 06:50:41;;;;;;;4.65;4.25;;;27.40;59.00;;;;;;5052115;28;20036;-53
2023/07/01 06:53:07;;;;;;;5.10;4.60;;;27.40;59.30;;;;;;5052681;28;20032;-55
2023/07/01 06:55:33;;;;;;;5.20;4.70;;;27.40;59.50;;;;;;5052591;28;20457;-55
2023/07/01 06:58:02;;;;;;;4.93;4.43;;;27.40;59.70;;;;;;5052481;28;20029;-54
2023/07/01 07:00:29;;;;;;;5.68;4.90;;;27.30;59.80;;;;;;5052496;28;20043;-55
2023/07/01 07:02:55;;;;;;;6.00;5.40;;;27.30;59.80;;;;;;5052448;28;20024;-55
2023/07/01 07:05:20;;;;;;;4.32;3.92;;;27.30;60.00;;;;;;5052239;28;20070;-55
2023/07/01 07:07:46;;;;;;;4.90;4.40;;;27.30;60.00;;;;;;5052331;28;20493;-55
2023/07/01 07:10:12;;;;;;;4.68;4.28;;;27.20;60.10;;;;;;5052299;28;20064;-54
2023/07/01 07:12:38;;;;;;;4.57;4.18;;;27.20;60.50;;;;;;5052418;28;20366;-54
2023/07/01 07:15:04;;;;;;;6.07;5.00;;;27.20;60.40;;;;;;5052545;28;20384;-56
2023/07/01 07:17:33;;;;;;;5.15;4.63;;;27.20;60.70;;;;;;5052380;28;20045;-55
2023/07/01 07:19:59;;;;;;;5.22;4.50;;;27.20;60.60;;;;;;5052040;28;20036;-55
2023/07/01 07:22:25;;;;;;;5.38;4.88;;;27.20;60.50;;;;;;5052287;28;20130;-56
2023/07/01 07:24:50;;;;;;;5.53;4.90;;;27.20;60.80;;;;;;5051976;28;20109;-55
2023/07/01 07:27:16;;;;;;;5.47;4.97;;;27.20;61.00;;;;;;5051971;28;20040;-56
2023/07/01 07:29:41;;;;;;;5.40;4.90;;;27.20;61.30;;;;;;5051883;28;20362;-56
2023/07/01 07:32:08;;;;;;;5.55;4.75;;;27.10;61.40;;;;;;5052154;28;20039;-55
2023/07/01 07:34:33;;;;;;;5.65;5.05;;;27.10;61.80;;;;;;5050480;28;20021;-56
2023/07/01 07:36:59;;;;;;;5.53;4.95;;;27.10;62.10;;;;;;5051660;28;20071;-56
2023/07/01 07:39:25;;;;;;;8.25;4.95;;;27.10;62.40;;;;;;5050284;28;20021;-56
2023/07/01 07:41:51;;;;;;;5.70;5.10;;;27.10;62.60;;;;;;5049939;28;20469;-53
2023/07/01 07:44:18;;;;;;;5.70;5.20;;;27.10;62.80;;;;;;5050495;28;20496;-56
2023/07/01 07:46:44;;;;;;;5.30;4.80;;;27.10;63.00;;;;;;5051393;28;20025;-56
2023/07/01 07:49:10;;;;;;;5.53;4.70;;;27.00;63.00;;;;;;5050752;28;20055;-53
2023/07/01 07:51:36;;;;;;;5.57;4.97;;;27.00;63.00;;;;;;5050263;28;20082;-54
2023/07/01 07:54:02;;;;;;;5.30;4.72;;;27.00;63.00;;;;;;5050699;28;20058;-55
2023/07/01 07:56:28;;;;;;;5.18;4.68;;;27.00;63.20;;;;;;5050125;28;20352;-55
2023/07/01 07:58:53;;;;;;;5.82;5.22;;;27.00;63.50;;;;;;5049427;28;20163;-55
2023/07/01 08:01:19;;;;;;;6.07;4.95;;;27.00;63.40;;;;;;5047409;28;20025;-55
2023/07/01 08:03:45;;;;;;;5.57;5.00;;;27.00;63.50;;;;;;5049975;28;20059;-56
2023/07/01 08:06:10;;;;;;;5.70;5.15;;;27.00;63.50;;;;;;5050301;28;20057;-54
2023/07/01 08:08:39;;;;;;;5.65;5.15;;;27.00;63.60;;;;;;5051043;28;20441;-56
2023/07/01 08:11:05;;;;;;;5.30;4.80;;;27.00;63.50;;;;;;5050712;28;20488;-53
2023/07/01 08:13:30;;;;;;;5.93;5.13;;;26.90;63.60;;;;;;5051251;28;20025;-55
2023/07/01 08:15:57;;;;;;;5.82;5.25;;;26.90;63.80;;;;;;5050903;28;20036;-56
2023/07/01 08:18:23;;;;;;;5.95;5.35;;;26.80;64.00;;;;;;5051056;28;20074;-55
2023/07/01 08:20:50;;;;;;;5.95;5.35;;;26.70;64.10;;;;;;5050518;28;20492;-56
2023/07/01 08:23:16;;;;;;;6.20;5.03;;;26.70;64.40;;;;;;5050958;28;20053;-56
2023/07/01 08:25:43;;;;;;;5.80;5.20;;;26.70;64.80;;;;;;5051005;28;20059;-56
2023/07/01 08:28:09;;;;;;;6.10;5.10;;;26.70;65.20;;;;;;5050794;28;20048;-56
2023/07/01 08:30:35;;;;;;;5.90;5.40;;;26.70;65.20;;;;;;5050807;28;20017;-56
2023/07/01 08:33:00;;;;;;;5.82;5.20;;;26.70;65.30;;;;;;5051200;28;20032;-56
2023/07/01 08:35:26;;;;;;;7.07;5.50;;;26.70;65.30;;;;;;5050888;28;20037;-53
2023/07/01 08:37:52;;;;;;;5.25;4.75;;;26.70;65.30;;;;;;5050836;28;20111;-56
2023/07/01 08:40:18;;;;;;;5.60;5.10;;;26.70;65.20;;;;;;5051016;28;20029;-56
2023/07/01 08:42:48;;;;;;;5.95;5.35;;;26.70;65.40;;;;;;5050691;28;20481;-55
2023/07/01 08:45:14;;;;;;;5.40;4.90;;;26.70;65.70;;;;;;5050860;28;20025;-56
2023/07/01 08:47:40;;;;;;;5.85;5.25;;;26.60;65.60;;;;;;5050965;28;20029;-56
2023/07/01 08:50:07;;;;;;;5.60;5.10;;;26.60;65.90;;;;;;5050780;28;20025;-55
2023/07/01 08:52:41;;;;;;;6.10;5.50;;;26.60;66.10;;;;;;5049852;28;20104;-55
2023/07/01 08:55:13;;;;;;;5.60;4.90;;;26.60;65.90;;;;;;5050638;28;20108;-56
2023/07/01 08:57:41;;;;;;;7.63;5.35;;;26.50;65.80;;;;;;5049192;28;20033;-54
2023/07/01 09:00:15;;;;;;;5.85;5.03;;;26.50;65.80;;;;;;5049150;28;20025;-55
2023/07/01 09:02:41;;;;;;;5.45;4.90;;;26.50;65.90;;;;;;5048542;28;20503;-56
2023/07/01 09:05:07;;;;;;;6.32;5.43;;;26.50;66.20;;;;;;5049339;28;20484;-56
2023/07/01 09:07:33;;;;;;;7.20;5.63;;;26.40;66.00;;;;;;5049674;28;20032;-54
2023/07/01 09:10:03;;;;;;;5.90;5.30;;;26.40;66.20;;;;;;5049832;28;20484;-56
2023/07/01 09:12:32;;;;;;;5.85;5.20;;;26.40;66.10;;;;;;5050599;28;20029;-56
2023/07/01 09:15:06;;;;;;;5.25;4.75;;;26.40;66.10;;;;;;5054339;28;20094;-56
2023/07/01 09:17:34;;;;;;;5.18;4.68;;;26.30;66.00;;;;;;5054222;28;20031;-56
2023/07/01 09:20:04;;;;;;;5.47;4.97;;;26.30;66.30;;;;;;5054326;28;20399;-55
2023/07/01 09:22:30;;;;;;;5.60;5.03;;;26.30;66.40;;;;;;5052228;28;20021;-55
2023/07/01 09:24:56;;;;;;;5.13;4.63;;;26.20;66.40;;;;;;5053439;28;20096;-56
2023/07/01 09:27:22;;;;;;;4.32;3.92;;;26.20;67.00;;;;;;5054597;28;20032;-55
2023/07/01 09:29:48;;;;;;;5.43;4.50;;;26.10;66.30;;;;;;5054416;28;20025;-56
2023/07/01 09:32:31;;;;;;;5.07;4.57;;;26.20;66.50;;;;;;5053962;28;20402;-56
2023/07/01 09:34:59;;;;;;;4.93;4.40;;;26.10;66.50;;;;;;5054419;28;20372;-56
2023/07/01 09:37:25;;;;;;;4.85;4.43;;;26.10;66.50;;;;;;5053225;28;20068;-53
2023/07/01 09:39:52;;;;;;;4.80;4.20;;;26.10;66.70;;;;;;5051832;28;20033;-56
2023/07/01 09:42:18;;;;;;;4.75;4.28;;;26.10;66.90;;;;;;5053313;28;20051;-56
2023/07/01 09:45:07;;;;;;;4.80;4.30;;;26.10;66.80;;;;;;5051532;28;20036;-54
2023/07/01 09:47:33;;;;;;;5.10;4.60;;;26.10;66.30;;;;;;5051609;28;20017;-57
2023/07/01 09:50:01;;;;;;;4.65;4.15;;;26.10;66.10;;;;;;5053499;28;20029;-54
2023/07/01 09:52:34;;;;;;;4.30;3.90;;;26.10;66.00;;;;;;5053160;28;20033;-56
2023/07/01 09:55:02;;;;;;;4.93;3.90;;;26.10;66.10;;;;;;5053276;28;20370;-55
2023/07/01 09:57:29;;;;;;;4.55;4.15;;;26.10;66.00;;;;;;5053982;28;20029;-56
2023/07/01 09:59:55;;;;;;;5.25;4.05;;;26.10;66.00;;;;;;5053439;28;20036;-56
2023/07/01 10:02:22;;;;;;;4.25;3.85;;;26.10;65.90;;;;;;5052512;28;20102;-56
2023/07/01 10:04:48;;;;;;;4.70;4.18;;;26.10;65.60;;;;;;5052215;28;20059;-53
2023/07/01 10:07:14;;;;;;;4.28;3.88;;;26.10;65.60;;;;;;5053125;28;20112;-56
2023/07/01 10:09:43;;;;;;;5.03;4.47;;;26.00;65.80;;;;;;5053330;28;20017;-56
2023/07/01 10:12:10;;;;;;;4.30;3.90;;;26.00;66.00;;;;;;5053059;28;20021;-57
2023/07/01 10:14:36;;;;;;;4.30;3.90;;;26.00;66.20;;;;;;5053053;28;20114;-57
2023/07/01 10:17:03;;;;;;;4.20;3.80;;;26.00;66.10;;;;;;5053053;28;20029;-56
2023/07/01 10:19:29;;;;;;;4.70;4.00;;;25.90;66.10;;;;;;5053449;28;20473;-56
2023/07/01 10:22:25;;;;;;;4.30;3.90;;;26.00;65.90;;;;;;5053097;28;20021;-56
2023/07/01 10:25:03;;;;;;;4.60;3.95;;;26.00;65.50;;;;;;5052486;28;20096;-57
2023/07/01 10:27:43;;;;;;;5.20;4.60;;;25.90;65.30;;;;;;5053017;28;20033;-56
2023/07/01 10:30:11;;;;;;;4.45;3.90;;;25.90;65.10;;;;;;5053182;28;20021;-57
2023/07/01 10:32:37;;;;;;;5.03;4.05;;;25.90;65.20;;;;;;5052989;28;20037;-56
2023/07/01 10:35:05;;;;;;;5.53;4.55;;;25.90;65.50;;;;;;5053306;28;20036;-56
2023/07/01 10:37:32;;;;;;;4.32;3.90;;;25.80;65.60;;;;;;5052859;28;20033;-56
2023/07/01 10:40:00;;;;;;;4.47;4.07;;;25.80;65.20;;;;;;5052861;28;20025;-57
2023/07/01 10:42:32;;;;;;;4.70;4.03;;;25.90;65.10;;;;;;5053043;28;20048;-56
2023/07/01 10:45:10;;;;;;;4.32;3.83;;;25.90;65.00;;;;;;5053078;28;20032;-56
2023/07/01 10:47:35;;;;;;;4.45;4.05;;;25.90;64.90;;;;;;5052650;28;20025;-56
2023/07/01 10:50:07;;;;;;;4.35;3.95;;;25.90;64.40;;;;;;5052657;28;20021;-56
2023/07/01 10:52:53;;;;;;;4.10;3.70;;;25.90;64.30;;;;;;5052656;28;20104;-56
2023/07/01 10:55:46;;;;;;;4.20;3.80;;;25.90;64.00;;;;;;5052488;28;20060;-56
2023/07/01 10:58:21;;;;;;;4.20;3.80;;;26.00;63.80;;;;;;5052846;28;20032;-56
2023/07/01 11:00:48;;;;;;;3.90;3.58;;;26.00;63.80;;;;;;5052411;28;20025;-56
2023/07/01 11:03:34;;;;;;;4.10;3.70;;;26.00;63.80;;;;;;5052015;28;20029;-56
2023/07/01 11:06:04;;;;;;;4.03;3.63;;;26.00;63.70;;;;;;5051622;28;20052;-57
2023/07/01 11:08:31;;;;;;;4.07;3.67;;;26.00;63.50;;;;;;5051326;28;20027;-56
2023/07/01 11:10:58;;;;;;;4.32;3.20;;;26.00;63.30;;;;;;5052015;28;20079;-56
2023/07/01 11:13:24;;;;;;;5.45;3.92;;;26.00;63.80;;;;;;5052180;28;20058;-55
2023/07/01 11:16:23;;;;;;;3.53;3.17;;;26.00;63.00;;;;;;5052174;28;20021;-54
2023/07/01 11:18:53;;;;;;;4.45;3.60;;;26.00;62.70;;;;;;5050645;28;20120;-56
2023/07/01 11:21:30;;;;;;;8.80;3.70;;;26.00;62.80;;;;;;5052138;28;20025;-57
2023/07/01 11:24:00;;;;;;;6.82;3.67;;;26.00;62.90;;;;;;5052337;28;20043;-53
2023/07/01 11:26:36;;;;;;;4.47;3.63;;;26.00;63.10;;;;;;5051863;28;20048;-54
2023/07/01 11:29:07;;;;;;;5.03;3.45;;;26.00;63.20;;;;;;5051295;28;20086;-56
2023/07/01 11:31:36;;;;;;;3.38;3.08;;;26.10;63.40;;;;;;5051144;28;20021;-56
2023/07/01 11:34:02;;;;;;;3.35;3.05;;;26.10;63.60;;;;;;5050790;28;20028;-52
2023/07/01 11:36:37;;;;;;;3.80;3.50;;;26.10;63.20;;;;;;5049960;28;20096;-56
2023/07/01 11:39:13;;;;;;;3.83;3.47;;;26.10;63.30;;;;;;5051634;28;20078;-55
2023/07/01 11:41:41;;;;;;;3.88;3.47;;;26.20;63.30;;;;;;5051534;28;20124;-56
2023/07/01 11:44:09;;;;;;;4.05;3.42;;;26.20;63.40;;;;;;5050111;28;20119;-54
2023/07/01 11:46:40;;;;;;;3.72;3.40;;;26.20;63.30;;;;;;5051780;28;20032;-56
2023/07/01 11:49:27;;;;;;;3.75;3.38;;;26.30;63.50;;;;;;5051421;28;20052;-56
2023/07/01 11:51:54;;;;;;;3.42;3.08;;;26.30;63.40;;;;;;5050532;28;20051;-56
2023/07/01 11:54:25;;;;;;;3.30;3.00;;;26.30;63.30;;;;;;5051262;28;20029;-57
2023/07/01 11:57:08;;;;;;;3.80;3.40;;;26.30;63.30;;;;;;5050334;28;20107;-56
2023/07/01 11:59:35;;;;;;;4.30;3.78;;;26.30;63.10;;;;;;5049046;28;20036;-56
2023/07/01 12:02:02;;;;;;;3.75;3.35;;;26.30;63.00;;;;;;5049196;28;20481;-52
2023/07/01 12:04:28;;;;;;;4.15;3.42;;;26.30;62.90;;;;;;5050164;28;20029;-55
2023/07/01 12:07:08;;;;;;;3.50;3.15;;;26.20;62.80;;;;;;5049801;28;20021;-56
2023/07/01 12:09:34;;;;;;;;;;;26.20;62.50;;;;;;5051254;28;20024;-57
2023/07/01 12:12:00;;;;;;;7.60;6.35;;;26.20;62.40;;;;;;5050946;28;19909;-56
2023/07/01 12:14:25;;;;;;;5.72;4.55;;;26.20;62.60;;;;;;5051285;28;20021;-56
2023/07/01 12:16:52;;;;;;;5.85;4.13;;;26.20;62.60;;;;;;5050920;28;20524;-57
2023/07/01 12:19:20;;;;;;;4.68;3.80;;;26.20;62.30;;;;;;5050737;28;20025;-52
2023/07/01 12:21:47;;;;;;;5.15;3.53;;;26.20;62.20;;;;;;5051362;28;20035;-56
2023/07/01 12:24:38;;;;;;;4.03;3.60;;;26.20;62.10;;;;;;5050978;28;20029;-56
2023/07/01 12:27:04;;;;;;;5.72;4.68;;;26.20;62.20;;;;;;5050512;28;20118;-57
2023/07/01 12:29:30;;;;;;;7.25;5.15;;;26.20;62.10;;;;;;5050842;28;20016;-57
2023/07/01 12:31:57;;;;;;;4.50;3.97;;;26.20;62.20;;;;;;5051033;28;20396;-56
2023/07/01 12:34:23;;;;;;;4.88;3.67;;;26.20;62.10;;;;;;5051124;28;20036;-57
2023/07/01 12:36:50;;;;;;;4.75;3.58;;;26.30;62.00;;;;;;5051203;28;20063;-53
2023/07/01 12:39:17;;;;;;;3.85;3.45;;;26.30;61.90;;;;;;5051044;28;20029;-56
2023/07/01 12:41:53;;;;;;;3.78;3.42;;;26.30;62.00;;;;;;5050864;28;20029;-56
2023/07/01 12:44:18;;;;;;;5.30;3.90;;;26.30;62.00;;;;;;5051268;28;20060;-57
2023/07/01 12:46:45;;;;;;;4.18;3.45;;;26.40;61.90;;;;;;5051046;28;20057;-55
2023/07/01 12:49:12;;;;;;;5.20;3.65;;;26.40;61.80;;;;;;5053552;28;20079;-54
2023/07/01 12:51:38;;;;;;;4.03;3.45;;;26.40;61.80;;;;;;5055001;28;20048;-57